Mild Tune — VROS2 — position and weather

sailwx.info

Track history (hours):
 
Tides and Currents Weather Stations Pressure Air Temp Water Temp Dewpoint Dewpoint Depression Visibility Wind Speed Wind Dir Waves Ship Positions

Mild Tune

Last reported at 2018-Jan-19 09:25 UTC. Time now 2018-Jan-20 13:10 UTC.
Position N 31°06' E 122°23'.

Length 147 m; draft 7.4 m.

Type: Cargo ship. MMSI: 477524300.

Date/timePositionNaut miles runAvg speedWind from/ knotsBaromVisibWave heightAir tempDewpointWater temp
2018-Jan-19 09:25N 31°06' E 122°23'614.0
2018-Jan-19 09:01N 31°07' E 122°16'814.8
2018-Jan-19 08:28N 31°12' E 122°09'714.6
2018-Jan-19 08:00N 31°14' E 122°02'714.8
2018-Jan-19 07:30N 31°16' E 121°53'12 1.0
2018-Jan-18 19:22N 31°20' E 121°40'0 0.5
2018-Jan-18 18:56N 31°20' E 121°40'3 5.9
2018-Jan-18 18:30N 31°19' E 121°43'510.7
2018-Jan-18 18:00N 31°15' E 121°47'812.9
2018-Jan-18 17:21N 31°09' E 121°54'513.7
2018-Jan-18 17:00N 31°06' E 121°59'612.4
2018-Jan-18 16:30N 31°04' E 122°05'613.0
2018-Jan-18 16:01N 31°03' E 122°13'510.2
2018-Jan-18 15:30N 31°02' E 122°19'712.8
2018-Jan-18 14:59N 31°01' E 122°26'  
2018-Jan-11 20:46N 34°03' E 129°51'416.0
2018-Jan-11 20:29N 34°03' E 129°56'816.2
2018-Jan-11 20:00N 34°03' E 130°06'816.1
2018-Jan-11 19:30N 34°04' E 130°15'815.9
2018-Jan-11 19:00N 34°04' E 130°25'815.8
2018-Jan-11 18:30N 34°04' E 130°34'815.7
2018-Jan-11 18:00N 34°04' E 130°44'714.7
2018-Jan-11 17:30N 34°01' E 130°52'611.7
2018-Jan-11 17:00N 33°55' E 130°54'4 7.9
2018-Jan-11 16:30N 33°58' E 130°57'4 8.9
2018-Jan-11 16:00N 33°58' E 131°03'713.8
2018-Jan-11 15:30N 33°53' E 131°09'713.8
2018-Jan-11 15:00N 33°51' E 131°17'714.6
2018-Jan-11 14:30N 33°50' E 131°26'714.6
2018-Jan-11 14:00N 33°48' E 131°34'714.6
2018-Jan-11 13:30N 33°47' E 131°43'714.5
2018-Jan-11 13:00N 33°40' E 131°47'714.4
2018-Jan-11 12:30N 33°34' E 131°51'714.3
2018-Jan-11 11:59N 33°27' E 131°55'714.2
2018-Jan-11 11:30N 33°21' E 131°58'714.5
2018-Jan-11 11:00N 33°15' E 132°03'815.0
2018-Jan-11 10:28N 33°09' E 132°10'26714.3
2018-Jan-10 15:45N 34°21' E 137°19'417.2
2018-Jan-10 15:29N 34°24' E 137°23'1216.0
2018-Jan-10 14:44N 34°28' E 137°37'516.6
2018-Jan-10 14:27N 34°29' E 137°42'716.2
2018-Jan-10 13:59N 34°31' E 137°51'815.1
2018-Jan-10 13:29N 34°31' E 138°00'714.3
2018-Jan-10 13:00N 34°31' E 138°09'713.6
2018-Jan-10 12:30N 34°30' E 138°17'714.2
2018-Jan-10 12:00N 34°30' E 138°25'814.2
2018-Jan-10 11:27N 34°31' E 138°35'714.0
2018-Jan-10 10:56N 34°31' E 138°43'613.5
2018-Jan-10 10:30N 34°31' E 138°51'713.4
2018-Jan-10 10:00N 34°33' E 138°58'815.7
2018-Jan-10 09:30N 34°40' E 139°04'816.3
2018-Jan-10 09:01N 34°46' E 139°10'815.8
2018-Jan-10 08:30N 34°51' E 139°17'714.7
2018-Jan-10 08:00N 34°55' E 139°25'815.6
2018-Jan-10 07:30N 34°59' E 139°33'815.6
2018-Jan-10 07:01N 35°04' E 139°40'815.2
2018-Jan-10 06:30N 35°10' E 139°46'611.7
2018-Jan-10 06:00N 35°16' E 139°46'612.6
2018-Jan-10 05:30N 35°22' E 139°42'611.6
2018-Jan-10 05:01N 35°28' E 139°42'1 1.4
2018-Jan-10 04:28N 35°27' E 139°41'0 0.0
2018-Jan-10 03:58N 35°27' E 139°41'0 0.0
2018-Jan-10 03:28N 35°27' E 139°41'0 0.0
2018-Jan-10 02:58N 35°27' E 139°41'0 0.0
2018-Jan-10 02:28N 35°27' E 139°41'0 0.0
2018-Jan-10 01:58N 35°27' E 139°41'0 0.0
2018-Jan-10 01:28N 35°27' E 139°41'0 0.0
2018-Jan-10 00:58N 35°27' E 139°41'0 0.0
2018-Jan-10 00:28N 35°27' E 139°41'0 0.0
2018-Jan-09 23:58N 35°27' E 139°41'0 0.0
2018-Jan-09 23:28N 35°28' E 139°41'1 1.8
2018-Jan-09 23:00N 35°28' E 139°42'3 6.8
2018-Jan-09 22:30N 35°27' E 139°46'4 8.7
2018-Jan-09 22:00N 35°29' E 139°50'611.2
2018-Jan-09 21:30N 35°35' E 139°48'2 4.1
2018-Jan-09 21:00N 35°36' E 139°47'0 0.0
2018-Jan-09 20:30N 35°36' E 139°47'0 0.0
2018-Jan-09 20:00N 35°36' E 139°47'0 0.0
2018-Jan-09 19:30N 35°36' E 139°47'0 0.0
2018-Jan-09 19:00N 35°36' E 139°47'0 0.0
2018-Jan-09 18:27N 35°36' E 139°47'0 0.0
2018-Jan-09 18:00N 35°36' E 139°47'0 0.0
2018-Jan-09 17:30N 35°36' E 139°47'0 0.0
2018-Jan-09 17:00N 35°36' E 139°47'0 0.0
2018-Jan-09 16:31N 35°36' E 139°47'0 0.0
2018-Jan-09 15:42N 35°36' E 139°47'0 0.0
2018-Jan-09 15:30N 35°36' E 139°47'0 0.0
2018-Jan-09 15:00N 35°36' E 139°47'0 0.0
2018-Jan-09 14:30N 35°36' E 139°47'0 0.0
2018-Jan-09 13:57N 35°36' E 139°47'0 0.0
2018-Jan-09 13:30N 35°36' E 139°47'0 0.0
2018-Jan-09 13:00N 35°36' E 139°47'0 0.0
2018-Jan-09 11:45N 35°36' E 139°47'0 0.0
2018-Jan-09 11:30N 35°36' E 139°47'0 0.0
2018-Jan-09 10:57N 35°36' E 139°47'0 0.0
2018-Jan-09 10:27N 35°36' E 139°47'0 0.0
2018-Jan-09 10:00N 35°36' E 139°47'  
Track history (hours):
 
Tides and Currents Weather Stations Pressure Air Temp Water Temp Dewpoint Dewpoint Depression Visibility Wind Speed Wind Dir Waves Ship Positions

Mild Tune

Last reported at 2018-Jan-19 09:25 UTC. Time now 2018-Jan-20 13:10 UTC.
Position N 31°06' E 122°23'.

Length 147 m; draft 7.4 m.

Type: Cargo ship. MMSI: 477524300.

Date/timePositionNaut miles runAvg speedWind from/ knotsBaromVisibWave heightAir tempDewpointWater temp
2018-Jan-19 09:25N 31°06' E 122°23'614.0
2018-Jan-19 09:01N 31°07' E 122°16'814.8
2018-Jan-19 08:28N 31°12' E 122°09'714.6
2018-Jan-19 08:00N 31°14' E 122°02'714.8
2018-Jan-19 07:30N 31°16' E 121°53'12 1.0
2018-Jan-18 19:22N 31°20' E 121°40'0 0.5
2018-Jan-18 18:56N 31°20' E 121°40'3 5.9
2018-Jan-18 18:30N 31°19' E 121°43'510.7
2018-Jan-18 18:00N 31°15' E 121°47'812.9
2018-Jan-18 17:21N 31°09' E 121°54'513.7
2018-Jan-18 17:00N 31°06' E 121°59'612.4
2018-Jan-18 16:30N 31°04' E 122°05'613.0
2018-Jan-18 16:01N 31°03' E 122°13'510.2
2018-Jan-18 15:30N 31°02' E 122°19'712.8
2018-Jan-18 14:59N 31°01' E 122°26'  
2018-Jan-11 20:46N 34°03' E 129°51'416.0
2018-Jan-11 20:29N 34°03' E 129°56'816.2
2018-Jan-11 20:00N 34°03' E 130°06'816.1
2018-Jan-11 19:30N 34°04' E 130°15'815.9
2018-Jan-11 19:00N 34°04' E 130°25'815.8
2018-Jan-11 18:30N 34°04' E 130°34'815.7
2018-Jan-11 18:00N 34°04' E 130°44'714.7
2018-Jan-11 17:30N 34°01' E 130°52'611.7
2018-Jan-11 17:00N 33°55' E 130°54'4 7.9
2018-Jan-11 16:30N 33°58' E 130°57'4 8.9
2018-Jan-11 16:00N 33°58' E 131°03'713.8
2018-Jan-11 15:30N 33°53' E 131°09'713.8
2018-Jan-11 15:00N 33°51' E 131°17'714.6
2018-Jan-11 14:30N 33°50' E 131°26'714.6
2018-Jan-11 14:00N 33°48' E 131°34'714.6
2018-Jan-11 13:30N 33°47' E 131°43'714.5
2018-Jan-11 13:00N 33°40' E 131°47'714.4
2018-Jan-11 12:30N 33°34' E 131°51'714.3
2018-Jan-11 11:59N 33°27' E 131°55'714.2
2018-Jan-11 11:30N 33°21' E 131°58'714.5
2018-Jan-11 11:00N 33°15' E 132°03'815.0
2018-Jan-11 10:28N 33°09' E 132°10'26714.3
2018-Jan-10 15:45N 34°21' E 137°19'417.2
2018-Jan-10 15:29N 34°24' E 137°23'1216.0
2018-Jan-10 14:44N 34°28' E 137°37'516.6
2018-Jan-10 14:27N 34°29' E 137°42'716.2
2018-Jan-10 13:59N 34°31' E 137°51'815.1
2018-Jan-10 13:29N 34°31' E 138°00'714.3
2018-Jan-10 13:00N 34°31' E 138°09'713.6
2018-Jan-10 12:30N 34°30' E 138°17'714.2
2018-Jan-10 12:00N 34°30' E 138°25'814.2
2018-Jan-10 11:27N 34°31' E 138°35'714.0
2018-Jan-10 10:56N 34°31' E 138°43'613.5
2018-Jan-10 10:30N 34°31' E 138°51'713.4
2018-Jan-10 10:00N 34°33' E 138°58'815.7
2018-Jan-10 09:30N 34°40' E 139°04'816.3
2018-Jan-10 09:01N 34°46' E 139°10'815.8
2018-Jan-10 08:30N 34°51' E 139°17'714.7
2018-Jan-10 08:00N 34°55' E 139°25'815.6
2018-Jan-10 07:30N 34°59' E 139°33'815.6
2018-Jan-10 07:01N 35°04' E 139°40'815.2
2018-Jan-10 06:30N 35°10' E 139°46'611.7
2018-Jan-10 06:00N 35°16' E 139°46'612.6
2018-Jan-10 05:30N 35°22' E 139°42'611.6
2018-Jan-10 05:01N 35°28' E 139°42'1 1.4
2018-Jan-10 04:28N 35°27' E 139°41'0 0.0
2018-Jan-10 03:58N 35°27' E 139°41'0 0.0
2018-Jan-10 03:28N 35°27' E 139°41'0 0.0
2018-Jan-10 02:58N 35°27' E 139°41'0 0.0
2018-Jan-10 02:28N 35°27' E 139°41'0 0.0
2018-Jan-10 01:58N 35°27' E 139°41'0 0.0
2018-Jan-10 01:28N 35°27' E 139°41'0 0.0
2018-Jan-10 00:58N 35°27' E 139°41'0 0.0
2018-Jan-10 00:28N 35°27' E 139°41'0 0.0
2018-Jan-09 23:58N 35°27' E 139°41'0 0.0
2018-Jan-09 23:28N 35°28' E 139°41'1 1.8
2018-Jan-09 23:00N 35°28' E 139°42'3 6.8
2018-Jan-09 22:30N 35°27' E 139°46'4 8.7
2018-Jan-09 22:00N 35°29' E 139°50'611.2
2018-Jan-09 21:30N 35°35' E 139°48'2 4.1
2018-Jan-09 21:00N 35°36' E 139°47'0 0.0
2018-Jan-09 20:30N 35°36' E 139°47'0 0.0
2018-Jan-09 20:00N 35°36' E 139°47'0 0.0
2018-Jan-09 19:30N 35°36' E 139°47'0 0.0
2018-Jan-09 19:00N 35°36' E 139°47'0 0.0
2018-Jan-09 18:27N 35°36' E 139°47'0 0.0
2018-Jan-09 18:00N 35°36' E 139°47'0 0.0
2018-Jan-09 17:30N 35°36' E 139°47'0 0.0
2018-Jan-09 17:00N 35°36' E 139°47'0 0.0
2018-Jan-09 16:31N 35°36' E 139°47'0 0.0
2018-Jan-09 15:42N 35°36' E 139°47'0 0.0
2018-Jan-09 15:30N 35°36' E 139°47'0 0.0
2018-Jan-09 15:00N 35°36' E 139°47'0 0.0
2018-Jan-09 14:30N 35°36' E 139°47'0 0.0
2018-Jan-09 13:57N 35°36' E 139°47'0 0.0
2018-Jan-09 13:30N 35°36' E 139°47'0 0.0
2018-Jan-09 13:00N 35°36' E 139°47'0 0.0
2018-Jan-09 11:45N 35°36' E 139°47'0 0.0
2018-Jan-09 11:30N 35°36' E 139°47'0 0.0
2018-Jan-09 10:57N 35°36' E 139°47'0 0.0
2018-Jan-09 10:27N 35°36' E 139°47'0 0.0
2018-Jan-09 10:00N 35°36' E 139°47'  

Dump ship's entire track history